San Antonio, Texas
Current Conditions -  °F | °C
As of 5:58 PM on Wednesday 22 Oct 2014 (Local Time) from KSKF Reporting Station
Few Clouds Few Clouds  
Wind Chill: 28°   Ceiling: Unl
Heat Index: 28°   Visibility: 10mi
Dew Point: 12°   Wind: 7mph
Humidity: 37%   Direction: 120°ESE
Pressure: 30.01"   Gusts: NA
Location:  29.42°N, 98.49°W
Report Text: KSKF 222258Z AUTO 12006KT 10SM FEW220 28/12 A3001 RMK AO2 SLP156 T02780117 $
Loading
Personal Weather Stations






























Interactive Weather Map
Tropical Storm Tracking
New forecast layout! Learn more

10-Day Weather Forecast

Advertisements
Track Severe Weather on mobile